sensor_id;sensor_type;location;lat;lon;timestamp;temperature;humidity
8313;DHT22;4194;43.408;24.626;2023-04-28T00:01:48;8.80;76.80
8313;DHT22;4194;43.408;24.626;2023-04-28T00:04:13;8.00;75.70
8313;DHT22;4194;43.408;24.626;2023-04-28T00:06:39;8.60;76.60
8313;DHT22;4194;43.408;24.626;2023-04-28T00:09:06;8.50;77.40
8313;DHT22;4194;43.408;24.626;2023-04-28T00:11:35;8.40;77.80
8313;DHT22;4194;43.408;24.626;2023-04-28T00:14:01;8.30;77.60
8313;DHT22;4194;43.408;24.626;2023-04-28T00:16:27;8.30;78.40
8313;DHT22;4194;43.408;24.626;2023-04-28T00:18:52;8.90;78.60
8313;DHT22;4194;43.408;24.626;2023-04-28T00:21:18;8.40;78.30
8313;DHT22;4194;43.408;24.626;2023-04-28T00:23:44;8.70;78.40
8313;DHT22;4194;43.408;24.626;2023-04-28T00:28:36;7.90;78.50
8313;DHT22;4194;43.408;24.626;2023-04-28T00:31:09;8.30;79.20
8313;DHT22;4194;43.408;24.626;2023-04-28T00:33:37;8.20;79.80
8313;DHT22;4194;43.408;24.626;2023-04-28T00:36:03;8.00;80.40
8313;DHT22;4194;43.408;24.626;2023-04-28T00:38:29;8.50;80.20
8313;DHT22;4194;43.408;24.626;2023-04-28T00:40:55;8.40;80.60
8313;DHT22;4194;43.408;24.626;2023-04-28T00:43:21;7.80;80.80
8313;DHT22;4194;43.408;24.626;2023-04-28T00:45:48;8.20;80.40
8313;DHT22;4194;43.408;24.626;2023-04-28T00:48:14;7.80;80.90
8313;DHT22;4194;43.408;24.626;2023-04-28T00:50:42;7.80;81.00
8313;DHT22;4194;43.408;24.626;2023-04-28T00:53:08;6.50;79.90
8313;DHT22;4194;43.408;24.626;2023-04-28T00:55:34;8.40;82.00
8313;DHT22;4194;43.408;24.626;2023-04-28T00:58:01;8.10;81.90
8313;DHT22;4194;43.408;24.626;2023-04-28T01:00:27;8.10;82.00
8313;DHT22;4194;43.408;24.626;2023-04-28T01:02:53;7.40;82.00
8313;DHT22;4194;43.408;24.626;2023-04-28T01:05:19;7.80;82.60
8313;DHT22;4194;43.408;24.626;2023-04-28T01:07:45;7.70;82.40
8313;DHT22;4194;43.408;24.626;2023-04-28T01:10:11;7.40;82.80
8313;DHT22;4194;43.408;24.626;2023-04-28T01:12:37;7.40;83.70
8313;DHT22;4194;43.408;24.626;2023-04-28T01:15:03;8.20;84.20
8313;DHT22;4194;43.408;24.626;2023-04-28T01:17:28;8.30;84.00
8313;DHT22;4194;43.408;24.626;2023-04-28T01:19:54;7.50;83.80
8313;DHT22;4194;43.408;24.626;2023-04-28T01:22:20;7.00;83.40
8313;DHT22;4194;43.408;24.626;2023-04-28T01:24:45;7.70;84.40
8313;DHT22;4194;43.408;24.626;2023-04-28T01:27:11;7.10;84.00
8313;DHT22;4194;43.408;24.626;2023-04-28T01:29:37;7.40;84.50
8313;DHT22;4194;43.408;24.626;2023-04-28T01:32:03;7.90;85.40
8313;DHT22;4194;43.408;24.626;2023-04-28T01:34:28;8.40;85.90
8313;DHT22;4194;43.408;24.626;2023-04-28T01:36:54;8.40;87.10
8313;DHT22;4194;43.408;24.626;2023-04-28T01:39:20;8.70;87.70
8313;DHT22;4194;43.408;24.626;2023-04-28T01:41:46;8.30;88.30
8313;DHT22;4194;43.408;24.626;2023-04-28T01:46:38;8.20;90.00
8313;DHT22;4194;43.408;24.626;2023-04-28T01:49:04;6.10;86.80
8313;DHT22;4194;43.408;24.626;2023-04-28T01:51:29;8.30;88.60
8313;DHT22;4194;43.408;24.626;2023-04-28T01:53:55;6.90;87.50
8313;DHT22;4194;43.408;24.626;2023-04-28T01:56:21;6.10;86.90
8313;DHT22;4194;43.408;24.626;2023-04-28T01:58:47;7.70;88.90
8313;DHT22;4194;43.408;24.626;2023-04-28T02:01:12;6.40;88.60
8313;DHT22;4194;43.408;24.626;2023-04-28T02:03:38;7.00;91.20
8313;DHT22;4194;43.408;24.626;2023-04-28T02:06:04;6.30;91.00
8313;DHT22;4194;43.408;24.626;2023-04-28T02:08:29;6.90;91.60
8313;DHT22;4194;43.408;24.626;2023-04-28T02:10:56;8.30;91.90
8313;DHT22;4194;43.408;24.626;2023-04-28T02:13:22;6.20;91.50
8313;DHT22;4194;43.408;24.626;2023-04-28T02:15:48;8.00;92.10
8313;DHT22;4194;43.408;24.626;2023-04-28T02:18:14;7.80;92.30
8313;DHT22;4194;43.408;24.626;2023-04-28T02:20:40;5.20;90.90
8313;DHT22;4194;43.408;24.626;2023-04-28T02:23:05;6.40;91.80
8313;DHT22;4194;43.408;24.626;2023-04-28T02:25:31;6.90;91.50
8313;DHT22;4194;43.408;24.626;2023-04-28T02:27:57;6.10;90.90
8313;DHT22;4194;43.408;24.626;2023-04-28T02:30:23;7.20;91.50
8313;DHT22;4194;43.408;24.626;2023-04-28T02:32:49;6.60;90.90
8313;DHT22;4194;43.408;24.626;2023-04-28T02:40:07;6.40;91.70
8313;DHT22;4194;43.408;24.626;2023-04-28T02:42:33;6.30;91.80
8313;DHT22;4194;43.408;24.626;2023-04-28T02:44:58;6.70;92.70
8313;DHT22;4194;43.408;24.626;2023-04-28T02:47:24;6.00;91.70
8313;DHT22;4194;43.408;24.626;2023-04-28T02:49:50;7.30;92.50
8313;DHT22;4194;43.408;24.626;2023-04-28T02:52:41;7.60;92.90
8313;DHT22;4194;43.408;24.626;2023-04-28T02:55:07;5.40;92.20
8313;DHT22;4194;43.408;24.626;2023-04-28T02:57:32;5.60;92.40
8313;DHT22;4194;43.408;24.626;2023-04-28T03:02:24;5.90;93.50
8313;DHT22;4194;43.408;24.626;2023-04-28T03:07:16;6.10;93.30
8313;DHT22;4194;43.408;24.626;2023-04-28T03:12:07;7.10;93.30
8313;DHT22;4194;43.408;24.626;2023-04-28T03:14:33;5.30;93.00
8313;DHT22;4194;43.408;24.626;2023-04-28T03:16:59;7.10;94.00
8313;DHT22;4194;43.408;24.626;2023-04-28T03:19:24;6.10;93.50
8313;DHT22;4194;43.408;24.626;2023-04-28T03:21:50;5.70;92.90
8313;DHT22;4194;43.408;24.626;2023-04-28T03:24:16;7.60;93.70
8313;DHT22;4194;43.408;24.626;2023-04-28T03:26:42;6.00;93.20
8313;DHT22;4194;43.408;24.626;2023-04-28T03:29:07;6.00;93.50
8313;DHT22;4194;43.408;24.626;2023-04-28T03:31:33;6.40;93.50
8313;DHT22;4194;43.408;24.626;2023-04-28T03:33:59;5.60;92.70
8313;DHT22;4194;43.408;24.626;2023-04-28T03:36:24;7.40;93.90
8313;DHT22;4194;43.408;24.626;2023-04-28T03:38:51;5.70;92.90
8313;DHT22;4194;43.408;24.626;2023-04-28T03:41:17;6.50;93.10
8313;DHT22;4194;43.408;24.626;2023-04-28T03:43:43;6.70;93.40
8313;DHT22;4194;43.408;24.626;2023-04-28T03:46:09;5.20;92.90
8313;DHT22;4194;43.408;24.626;2023-04-28T03:48:34;5.30;92.80
8313;DHT22;4194;43.408;24.626;2023-04-28T03:51:00;7.20;94.10
8313;DHT22;4194;43.408;24.626;2023-04-28T03:53:26;5.30;93.30
8313;DHT22;4194;43.408;24.626;2023-04-28T03:55:52;6.50;93.10
8313;DHT22;4194;43.408;24.626;2023-04-28T03:58:17;6.50;93.30
8313;DHT22;4194;43.408;24.626;2023-04-28T04:00:43;7.10;93.70
8313;DHT22;4194;43.408;24.626;2023-04-28T04:03:09;6.20;93.70
8313;DHT22;4194;43.408;24.626;2023-04-28T04:05:34;7.30;94.20
8313;DHT22;4194;43.408;24.626;2023-04-28T04:08:00;6.40;93.40
8313;DHT22;4194;43.408;24.626;2023-04-28T04:10:27;6.30;93.30
8313;DHT22;4194;43.408;24.626;2023-04-28T04:12:53;8.20;94.00
8313;DHT22;4194;43.408;24.626;2023-04-28T04:15:18;7.80;93.90
8313;DHT22;4194;43.408;24.626;2023-04-28T04:17:44;7.70;93.50
8313;DHT22;4194;43.408;24.626;2023-04-28T04:20:10;6.70;93.50
8313;DHT22;4194;43.408;24.626;2023-04-28T04:22:35;8.10;93.60
8313;DHT22;4194;43.408;24.626;2023-04-28T04:25:01;6.60;93.40
8313;DHT22;4194;43.408;24.626;2023-04-28T04:27:27;6.60;92.70
8313;DHT22;4194;43.408;24.626;2023-04-28T04:29:53;6.70;92.70
8313;DHT22;4194;43.408;24.626;2023-04-28T04:32:19;6.50;92.60
8313;DHT22;4194;43.408;24.626;2023-04-28T04:34:44;7.50;92.60
8313;DHT22;4194;43.408;24.626;2023-04-28T04:37:10;7.70;92.40
8313;DHT22;4194;43.408;24.626;2023-04-28T04:39:36;6.50;92.00
8313;DHT22;4194;43.408;24.626;2023-04-28T04:42:01;7.70;92.70
8313;DHT22;4194;43.408;24.626;2023-04-28T04:44:27;8.30;92.80
8313;DHT22;4194;43.408;24.626;2023-04-28T04:46:53;7.70;92.30
8313;DHT22;4194;43.408;24.626;2023-04-28T04:49:18;7.10;91.80
8313;DHT22;4194;43.408;24.626;2023-04-28T04:51:44;8.30;92.20
8313;DHT22;4194;43.408;24.626;2023-04-28T04:54:09;8.10;92.40
8313;DHT22;4194;43.408;24.626;2023-04-28T04:56:35;7.80;92.10
8313;DHT22;4194;43.408;24.626;2023-04-28T04:59:02;7.10;92.10
8313;DHT22;4194;43.408;24.626;2023-04-28T05:01:27;7.60;92.40
8313;DHT22;4194;43.408;24.626;2023-04-28T05:03:53;7.60;92.70
8313;DHT22;4194;43.408;24.626;2023-04-28T05:08:45;8.00;92.90
8313;DHT22;4194;43.408;24.626;2023-04-28T05:11:10;6.80;92.20
8313;DHT22;4194;43.408;24.626;2023-04-28T05:13:36;7.10;91.90
8313;DHT22;4194;43.408;24.626;2023-04-28T05:16:02;7.50;92.50
8313;DHT22;4194;43.408;24.626;2023-04-28T05:18:28;7.80;92.50
8313;DHT22;4194;43.408;24.626;2023-04-28T05:20:53;7.30;91.70
8313;DHT22;4194;43.408;24.626;2023-04-28T05:23:19;7.00;91.10
8313;DHT22;4194;43.408;24.626;2023-04-28T05:25:44;7.20;90.40
8313;DHT22;4194;43.408;24.626;2023-04-28T05:28:10;8.80;91.40
8313;DHT22;4194;43.408;24.626;2023-04-28T05:30:36;8.80;91.00
8313;DHT22;4194;43.408;24.626;2023-04-28T05:33:02;8.00;90.50
8313;DHT22;4194;43.408;24.626;2023-04-28T05:35:28;8.40;90.00
8313;DHT22;4194;43.408;24.626;2023-04-28T05:37:53;7.10;88.60
8313;DHT22;4194;43.408;24.626;2023-04-28T05:40:19;8.50;90.30
8313;DHT22;4194;43.408;24.626;2023-04-28T05:45:11;8.50;90.20
8313;DHT22;4194;43.408;24.626;2023-04-28T05:47:36;8.10;90.00
8313;DHT22;4194;43.408;24.626;2023-04-28T05:50:02;8.70;90.20
8313;DHT22;4194;43.408;24.626;2023-04-28T05:52:28;8.90;90.60
8313;DHT22;4194;43.408;24.626;2023-04-28T05:54:54;7.70;90.60
8313;DHT22;4194;43.408;24.626;2023-04-28T05:57:19;9.30;90.90
8313;DHT22;4194;43.408;24.626;2023-04-28T05:59:45;7.60;90.30
8313;DHT22;4194;43.408;24.626;2023-04-28T06:02:11;9.20;91.40
8313;DHT22;4194;43.408;24.626;2023-04-28T06:04:37;10.70;91.10
8313;DHT22;4194;43.408;24.626;2023-04-28T06:07:03;8.50;90.90
8313;DHT22;4194;43.408;24.626;2023-04-28T06:09:29;8.00;90.90
8313;DHT22;4194;43.408;24.626;2023-04-28T06:11:55;8.90;91.60
8313;DHT22;4194;43.408;24.626;2023-04-28T06:14:22;8.00;91.60
8313;DHT22;4194;43.408;24.626;2023-04-28T06:19:14;7.70;91.90
8313;DHT22;4194;43.408;24.626;2023-04-28T06:21:43;7.60;92.30
8313;DHT22;4194;43.408;24.626;2023-04-28T06:24:09;10.40;92.90
8313;DHT22;4194;43.408;24.626;2023-04-28T06:26:35;8.90;92.70
8313;DHT22;4194;43.408;24.626;2023-04-28T06:29:00;9.30;92.30
8313;DHT22;4194;43.408;24.626;2023-04-28T06:31:26;9.60;92.70
8313;DHT22;4194;43.408;24.626;2023-04-28T06:36:18;9.50;92.40
8313;DHT22;4194;43.408;24.626;2023-04-28T06:38:44;8.90;92.30
8313;DHT22;4194;43.408;24.626;2023-04-28T06:41:10;9.70;91.90
8313;DHT22;4194;43.408;24.626;2023-04-28T06:43:36;10.60;91.20
8313;DHT22;4194;43.408;24.626;2023-04-28T06:46:02;10.50;90.60
8313;DHT22;4194;43.408;24.626;2023-04-28T06:48:28;11.00;90.10
8313;DHT22;4194;43.408;24.626;2023-04-28T06:50:54;11.00;89.90
8313;DHT22;4194;43.408;24.626;2023-04-28T06:53:19;11.70;89.20
8313;DHT22;4194;43.408;24.626;2023-04-28T06:55:45;11.10;87.80
8313;DHT22;4194;43.408;24.626;2023-04-28T06:58:11;11.40;88.80
8313;DHT22;4194;43.408;24.626;2023-04-28T07:00:37;11.20;85.70
8313;DHT22;4194;43.408;24.626;2023-04-28T07:03:03;11.70;85.30
8313;DHT22;4194;43.408;24.626;2023-04-28T07:05:28;12.90;85.50
8313;DHT22;4194;43.408;24.626;2023-04-28T07:10:20;12.30;85.20
8313;DHT22;4194;43.408;24.626;2023-04-28T07:12:46;12.00;86.90
8313;DHT22;4194;43.408;24.626;2023-04-28T07:15:12;11.70;84.60
8313;DHT22;4194;43.408;24.626;2023-04-28T07:17:37;11.60;85.40
8313;DHT22;4194;43.408;24.626;2023-04-28T07:20:04;10.80;83.40
8313;DHT22;4194;43.408;24.626;2023-04-28T07:24:56;11.40;84.10
8313;DHT22;4194;43.408;24.626;2023-04-28T07:27:22;11.20;84.70
8313;DHT22;4194;43.408;24.626;2023-04-28T07:29:47;10.70;86.00
8313;DHT22;4194;43.408;24.626;2023-04-28T07:32:13;12.60;86.10
8313;DHT22;4194;43.408;24.626;2023-04-28T07:34:39;11.50;84.80
8313;DHT22;4194;43.408;24.626;2023-04-28T07:37:05;12.60;86.20
8313;DHT22;4194;43.408;24.626;2023-04-28T07:39:31;11.90;86.70
8313;DHT22;4194;43.408;24.626;2023-04-28T07:42:02;13.90;85.40
8313;DHT22;4194;43.408;24.626;2023-04-28T07:44:28;12.40;84.70
8313;DHT22;4194;43.408;24.626;2023-04-28T07:46:54;12.60;84.80
8313;DHT22;4194;43.408;24.626;2023-04-28T07:49:20;13.50;84.70
8313;DHT22;4194;43.408;24.626;2023-04-28T07:51:46;12.50;84.40
8313;DHT22;4194;43.408;24.626;2023-04-28T07:54:12;12.50;84.60
8313;DHT22;4194;43.408;24.626;2023-04-28T07:56:38;13.30;85.20
8313;DHT22;4194;43.408;24.626;2023-04-28T07:59:03;12.40;84.30
8313;DHT22;4194;43.408;24.626;2023-04-28T08:01:29;13.50;86.70
8313;DHT22;4194;43.408;24.626;2023-04-28T08:03:55;13.60;85.00
8313;DHT22;4194;43.408;24.626;2023-04-28T08:06:20;13.50;84.00
8313;DHT22;4194;43.408;24.626;2023-04-28T08:08:46;14.00;84.70
8313;DHT22;4194;43.408;24.626;2023-04-28T08:13:38;14.60;82.80
8313;DHT22;4194;43.408;24.626;2023-04-28T08:16:04;13.00;80.60
8313;DHT22;4194;43.408;24.626;2023-04-28T08:18:30;14.80;81.90
8313;DHT22;4194;43.408;24.626;2023-04-28T08:20:56;14.30;81.80
8313;DHT22;4194;43.408;24.626;2023-04-28T08:23:21;13.80;78.70
8313;DHT22;4194;43.408;24.626;2023-04-28T08:25:48;14.80;78.60
8313;DHT22;4194;43.408;24.626;2023-04-28T08:28:14;14.70;79.50
8313;DHT22;4194;43.408;24.626;2023-04-28T08:30:40;14.70;80.10
8313;DHT22;4194;43.408;24.626;2023-04-28T08:37:57;15.00;78.30
8313;DHT22;4194;43.408;24.626;2023-04-28T08:40:23;14.50;79.20
8313;DHT22;4194;43.408;24.626;2023-04-28T08:42:51;14.70;79.70
8313;DHT22;4194;43.408;24.626;2023-04-28T08:45:17;14.20;79.90
8313;DHT22;4194;43.408;24.626;2023-04-28T08:47:43;14.20;80.30
8313;DHT22;4194;43.408;24.626;2023-04-28T08:50:14;14.60;79.30
8313;DHT22;4194;43.408;24.626;2023-04-28T08:52:41;14.00;79.10
8313;DHT22;4194;43.408;24.626;2023-04-28T08:55:09;13.30;78.50
8313;DHT22;4194;43.408;24.626;2023-04-28T08:57:44;14.80;79.90
8313;DHT22;4194;43.408;24.626;2023-04-28T09:00:11;14.90;78.80
8313;DHT22;4194;43.408;24.626;2023-04-28T09:02:38;14.30;79.10
8313;DHT22;4194;43.408;24.626;2023-04-28T09:05:07;14.90;78.70
8313;DHT22;4194;43.408;24.626;2023-04-28T09:07:33;15.20;77.80
8313;DHT22;4194;43.408;24.626;2023-04-28T09:10:15;15.30;76.00
8313;DHT22;4194;43.408;24.626;2023-04-28T09:12:41;15.10;75.40
8313;DHT22;4194;43.408;24.626;2023-04-28T09:15:07;14.40;75.30
8313;DHT22;4194;43.408;24.626;2023-04-28T09:17:47;14.70;76.40
8313;DHT22;4194;43.408;24.626;2023-04-28T09:20:40;15.60;75.90
8313;DHT22;4194;43.408;24.626;2023-04-28T09:23:19;15.30;73.60
8313;DHT22;4194;43.408;24.626;2023-04-28T09:26:05;17.20;73.70
8313;DHT22;4194;43.408;24.626;2023-04-28T09:28:33;16.10;73.40
8313;DHT22;4194;43.408;24.626;2023-04-28T09:30:59;15.30;74.10
8313;DHT22;4194;43.408;24.626;2023-04-28T09:33:26;16.20;74.80
8313;DHT22;4194;43.408;24.626;2023-04-28T09:35:52;14.90;73.20
8313;DHT22;4194;43.408;24.626;2023-04-28T09:38:19;15.50;74.10
8313;DHT22;4194;43.408;24.626;2023-04-28T09:40:54;15.80;75.40
8313;DHT22;4194;43.408;24.626;2023-04-28T09:45:49;15.90;73.00
8313;DHT22;4194;43.408;24.626;2023-04-28T09:48:15;17.10;72.70
8313;DHT22;4194;43.408;24.626;2023-04-28T09:50:41;15.90;69.90
8313;DHT22;4194;43.408;24.626;2023-04-28T09:53:09;17.40;70.90
8313;DHT22;4194;43.408;24.626;2023-04-28T09:55:40;16.80;71.30
8313;DHT22;4194;43.408;24.626;2023-04-28T09:58:11;17.90;72.10
8313;DHT22;4194;43.408;24.626;2023-04-28T10:00:38;16.80;72.20
8313;DHT22;4194;43.408;24.626;2023-04-28T10:03:05;18.10;71.70
8313;DHT22;4194;43.408;24.626;2023-04-28T10:05:32;18.60;72.40
8313;DHT22;4194;43.408;24.626;2023-04-28T10:08:01;18.10;70.70
8313;DHT22;4194;43.408;24.626;2023-04-28T10:10:28;18.70;65.00
8313;DHT22;4194;43.408;24.626;2023-04-28T10:12:54;19.00;66.50
8313;DHT22;4194;43.408;24.626;2023-04-28T10:15:22;18.00;66.90
8313;DHT22;4194;43.408;24.626;2023-04-28T10:17:49;18.40;64.30
8313;DHT22;4194;43.408;24.626;2023-04-28T10:20:16;18.20;64.50
8313;DHT22;4194;43.408;24.626;2023-04-28T10:22:57;18.20;65.40
8313;DHT22;4194;43.408;24.626;2023-04-28T10:25:34;16.80;64.40
8313;DHT22;4194;43.408;24.626;2023-04-28T10:28:04;17.50;65.60
8313;DHT22;4194;43.408;24.626;2023-04-28T10:30:30;17.30;65.70
8313;DHT22;4194;43.408;24.626;2023-04-28T10:42:59;17.40;68.50
8313;DHT22;4194;43.408;24.626;2023-04-28T10:48:23;18.90;68.50
8313;DHT22;4194;43.408;24.626;2023-04-28T10:58:39;17.40;62.60
8313;DHT22;4194;43.408;24.626;2023-04-28T11:03:50;18.70;63.60
8313;DHT22;4194;43.408;24.626;2023-04-28T11:06:35;18.60;64.40
8313;DHT22;4194;43.408;24.626;2023-04-28T11:16:58;18.60;60.20
8313;DHT22;4194;43.408;24.626;2023-04-28T11:19:44;18.20;57.80
8313;DHT22;4194;43.408;24.626;2023-04-28T11:24:40;19.30;57.30
8313;DHT22;4194;43.408;24.626;2023-04-28T11:27:06;19.40;58.20
8313;DHT22;4194;43.408;24.626;2023-04-28T11:29:39;18.30;58.20
8313;DHT22;4194;43.408;24.626;2023-04-28T11:32:06;18.10;58.30
8313;DHT22;4194;43.408;24.626;2023-04-28T11:34:33;17.30;57.60
8313;DHT22;4194;43.408;24.626;2023-04-28T11:36:59;17.30;57.90
8313;DHT22;4194;43.408;24.626;2023-04-28T11:39:29;17.90;59.00
8313;DHT22;4194;43.408;24.626;2023-04-28T11:41:59;18.10;59.10
8313;DHT22;4194;43.408;24.626;2023-04-28T11:44:28;17.10;57.90
8313;DHT22;4194;43.408;24.626;2023-04-28T11:46:56;16.80;57.60
8313;DHT22;4194;43.408;24.626;2023-04-28T11:49:46;18.90;58.60
8313;DHT22;4194;43.408;24.626;2023-04-28T11:52:12;19.00;59.30
8313;DHT22;4194;43.408;24.626;2023-04-28T11:54:38;19.10;58.80
8313;DHT22;4194;43.408;24.626;2023-04-28T11:57:06;18.50;55.50
8313;DHT22;4194;43.408;24.626;2023-04-28T11:59:41;18.10;55.70
8313;DHT22;4194;43.408;24.626;2023-04-28T12:02:07;19.40;51.10
8313;DHT22;4194;43.408;24.626;2023-04-28T12:04:40;20.40;52.30
8313;DHT22;4194;43.408;24.626;2023-04-28T12:07:08;19.40;52.10
8313;DHT22;4194;43.408;24.626;2023-04-28T12:09:39;23.20;51.00
8313;DHT22;4194;43.408;24.626;2023-04-28T12:12:12;22.50;48.00
8313;DHT22;4194;43.408;24.626;2023-04-28T12:15:01;22.50;46.40
8313;DHT22;4194;43.408;24.626;2023-04-28T12:20:04;23.70;42.70
8313;DHT22;4194;43.408;24.626;2023-04-28T12:22:45;25.00;43.70
8313;DHT22;4194;43.408;24.626;2023-04-28T12:25:14;24.90;42.70
8313;DHT22;4194;43.408;24.626;2023-04-28T12:28:04;24.50;42.70
8313;DHT22;4194;43.408;24.626;2023-04-28T12:30:33;25.40;43.90
8313;DHT22;4194;43.408;24.626;2023-04-28T12:32:59;26.30;43.40
8313;DHT22;4194;43.408;24.626;2023-04-28T12:35:27;27.20;41.50
8313;DHT22;4194;43.408;24.626;2023-04-28T12:37:53;29.20;40.70
8313;DHT22;4194;43.408;24.626;2023-04-28T12:40:20;27.80;37.90
8313;DHT22;4194;43.408;24.626;2023-04-28T12:45:12;28.80;38.50
8313;DHT22;4194;43.408;24.626;2023-04-28T12:47:38;28.20;38.70
8313;DHT22;4194;43.408;24.626;2023-04-28T12:50:07;24.40;42.80
8313;DHT22;4194;43.408;24.626;2023-04-28T12:52:33;22.90;44.30
8313;DHT22;4194;43.408;24.626;2023-04-28T12:55:00;21.10;45.30
8313;DHT22;4194;43.408;24.626;2023-04-28T12:57:26;22.20;47.50
8313;DHT22;4194;43.408;24.626;2023-04-28T12:59:53;21.80;48.60
8313;DHT22;4194;43.408;24.626;2023-04-28T13:02:20;21.10;46.50
8313;DHT22;4194;43.408;24.626;2023-04-28T13:04:46;21.20;46.30
8313;DHT22;4194;43.408;24.626;2023-04-28T13:07:12;23.70;47.00
8313;DHT22;4194;43.408;24.626;2023-04-28T13:09:38;24.40;42.50
8313;DHT22;4194;43.408;24.626;2023-04-28T13:12:04;26.10;40.60
8313;DHT22;4194;43.408;24.626;2023-04-28T13:14:30;28.20;38.60
8313;DHT22;4194;43.408;24.626;2023-04-28T13:16:56;29.20;36.10
8313;DHT22;4194;43.408;24.626;2023-04-28T13:21:52;28.40;37.00
8313;DHT22;4194;43.408;24.626;2023-04-28T13:24:18;25.60;41.20
8313;DHT22;4194;43.408;24.626;2023-04-28T13:26:43;23.30;41.70
8313;DHT22;4194;43.408;24.626;2023-04-28T13:29:09;21.80;44.00
8313;DHT22;4194;43.408;24.626;2023-04-28T13:31:36;20.30;45.30
8313;DHT22;4194;43.408;24.626;2023-04-28T13:34:02;24.30;43.70
8313;DHT22;4194;43.408;24.626;2023-04-28T13:36:29;26.70;40.90
8313;DHT22;4194;43.408;24.626;2023-04-28T13:38:56;26.50;38.60
8313;DHT22;4194;43.408;24.626;2023-04-28T13:41:22;25.60;40.70
8313;DHT22;4194;43.408;24.626;2023-04-28T13:43:47;25.80;41.00
8313;DHT22;4194;43.408;24.626;2023-04-28T13:46:13;24.10;41.60
8313;DHT22;4194;43.408;24.626;2023-04-28T13:48:39;23.80;42.50
8313;DHT22;4194;43.408;24.626;2023-04-28T13:51:06;24.50;42.90
8313;DHT22;4194;43.408;24.626;2023-04-28T13:53:33;26.70;39.60
8313;DHT22;4194;43.408;24.626;2023-04-28T13:55:59;29.20;36.70
8313;DHT22;4194;43.408;24.626;2023-04-28T13:58:27;31.00;36.30
8313;DHT22;4194;43.408;24.626;2023-04-28T14:00:53;29.90;36.10
8313;DHT22;4194;43.408;24.626;2023-04-28T14:03:20;30.90;34.80
8313;DHT22;4194;43.408;24.626;2023-04-28T14:05:56;30.80;35.20
8313;DHT22;4194;43.408;24.626;2023-04-28T14:08:23;32.90;34.10
8313;DHT22;4194;43.408;24.626;2023-04-28T14:10:50;30.80;33.40
8313;DHT22;4194;43.408;24.626;2023-04-28T14:15:42;27.50;35.70
8313;DHT22;4194;43.408;24.626;2023-04-28T14:18:10;26.90;37.40
8313;DHT22;4194;43.408;24.626;2023-04-28T14:20:36;27.70;37.60
8313;DHT22;4194;43.408;24.626;2023-04-28T14:23:02;24.50;37.90
8313;DHT22;4194;43.408;24.626;2023-04-28T14:25:28;23.30;40.20
8313;DHT22;4194;43.408;24.626;2023-04-28T14:27:54;19.40;39.20
8313;DHT22;4194;43.408;24.626;2023-04-28T14:30:20;22.30;43.70
8313;DHT22;4194;43.408;24.626;2023-04-28T14:32:46;25.50;40.50
8313;DHT22;4194;43.408;24.626;2023-04-28T14:35:12;28.40;37.00
8313;DHT22;4194;43.408;24.626;2023-04-28T14:37:41;31.30;34.10
8313;DHT22;4194;43.408;24.626;2023-04-28T14:40:07;32.80;32.10
8313;DHT22;4194;43.408;24.626;2023-04-28T14:42:34;33.80;31.50
8313;DHT22;4194;43.408;24.626;2023-04-28T14:45:02;34.30;30.80
8313;DHT22;4194;43.408;24.626;2023-04-28T14:47:28;34.10;31.30
8313;DHT22;4194;43.408;24.626;2023-04-28T14:49:55;34.50;30.80
8313;DHT22;4194;43.408;24.626;2023-04-28T14:52:21;33.70;29.50
8313;DHT22;4194;43.408;24.626;2023-04-28T14:54:50;34.30;30.40
8313;DHT22;4194;43.408;24.626;2023-04-28T14:57:16;35.60;30.00
8313;DHT22;4194;43.408;24.626;2023-04-28T14:59:43;34.20;29.50
8313;DHT22;4194;43.408;24.626;2023-04-28T15:02:08;34.70;30.00
8313;DHT22;4194;43.408;24.626;2023-04-28T15:04:34;35.40;30.10
8313;DHT22;4194;43.408;24.626;2023-04-28T15:07:00;36.10;30.40
8313;DHT22;4194;43.408;24.626;2023-04-28T15:09:26;36.10;29.80
8313;DHT22;4194;43.408;24.626;2023-04-28T15:11:52;36.00;30.50
8313;DHT22;4194;43.408;24.626;2023-04-28T15:14:18;35.30;28.90
8313;DHT22;4194;43.408;24.626;2023-04-28T15:16:45;35.10;28.90
8313;DHT22;4194;43.408;24.626;2023-04-28T15:19:12;35.10;29.40
8313;DHT22;4194;43.408;24.626;2023-04-28T15:21:38;34.90;29.50
8313;DHT22;4194;43.408;24.626;2023-04-28T15:24:04;34.00;29.00
8313;DHT22;4194;43.408;24.626;2023-04-28T15:26:30;35.40;29.90
8313;DHT22;4194;43.408;24.626;2023-04-28T15:28:56;33.70;29.30
8313;DHT22;4194;43.408;24.626;2023-04-28T15:33:52;30.90;31.20
8313;DHT22;4194;43.408;24.626;2023-04-28T15:36:18;30.90;32.50
8313;DHT22;4194;43.408;24.626;2023-04-28T15:38:48;30.80;34.10
8313;DHT22;4194;43.408;24.626;2023-04-28T15:41:15;28.70;36.60
8313;DHT22;4194;43.408;24.626;2023-04-28T15:43:41;28.10;37.10
8313;DHT22;4194;43.408;24.626;2023-04-28T15:46:09;28.70;37.00
8313;DHT22;4194;43.408;24.626;2023-04-28T15:48:36;28.90;35.80
8313;DHT22;4194;43.408;24.626;2023-04-28T15:51:06;27.00;34.90
8313;DHT22;4194;43.408;24.626;2023-04-28T15:53:32;26.80;38.50
8313;DHT22;4194;43.408;24.626;2023-04-28T15:55:58;24.20;40.30
8313;DHT22;4194;43.408;24.626;2023-04-28T15:58:24;23.90;45.10
8313;DHT22;4194;43.408;24.626;2023-04-28T16:00:49;21.40;44.70
8313;DHT22;4194;43.408;24.626;2023-04-28T16:03:16;20.10;46.10
8313;DHT22;4194;43.408;24.626;2023-04-28T16:05:42;18.80;47.30
8313;DHT22;4194;43.408;24.626;2023-04-28T16:08:08;19.70;48.80
8313;DHT22;4194;43.408;24.626;2023-04-28T16:10:33;18.40;50.80
8313;DHT22;4194;43.408;24.626;2023-04-28T16:12:59;18.30;51.50
8313;DHT22;4194;43.408;24.626;2023-04-28T16:15:25;18.50;53.00
8313;DHT22;4194;43.408;24.626;2023-04-28T16:17:51;18.00;52.70
8313;DHT22;4194;43.408;24.626;2023-04-28T16:20:18;17.60;54.20
8313;DHT22;4194;43.408;24.626;2023-04-28T16:22:44;15.20;52.60
8313;DHT22;4194;43.408;24.626;2023-04-28T16:25:11;17.00;55.00
8313;DHT22;4194;43.408;24.626;2023-04-28T16:27:39;15.70;55.10
8313;DHT22;4194;43.408;24.626;2023-04-28T16:30:05;16.10;56.00
8313;DHT22;4194;43.408;24.626;2023-04-28T16:32:33;16.70;56.80
8313;DHT22;4194;43.408;24.626;2023-04-28T16:35:00;15.80;56.60
8313;DHT22;4194;43.408;24.626;2023-04-28T16:37:26;15.50;57.60
8313;DHT22;4194;43.408;24.626;2023-04-28T16:39:52;14.80;57.10
8313;DHT22;4194;43.408;24.626;2023-04-28T16:42:17;14.00;57.20
8313;DHT22;4194;43.408;24.626;2023-04-28T16:44:45;15.20;58.60
8313;DHT22;4194;43.408;24.626;2023-04-28T16:47:11;14.90;58.60
8313;DHT22;4194;43.408;24.626;2023-04-28T16:49:36;15.00;59.20
8313;DHT22;4194;43.408;24.626;2023-04-28T16:52:03;15.10;59.70
8313;DHT22;4194;43.408;24.626;2023-04-28T16:54:30;15.80;61.00
8313;DHT22;4194;43.408;24.626;2023-04-28T16:56:57;14.80;60.50
8313;DHT22;4194;43.408;24.626;2023-04-28T16:59:23;14.10;61.30
8313;DHT22;4194;43.408;24.626;2023-04-28T17:01:53;14.60;61.90
8313;DHT22;4194;43.408;24.626;2023-04-28T17:04:19;14.30;62.80
8313;DHT22;4194;43.408;24.626;2023-04-28T17:06:44;14.20;65.20
8313;DHT22;4194;43.408;24.626;2023-04-28T17:09:10;14.00;65.20
8313;DHT22;4194;43.408;24.626;2023-04-28T17:11:36;14.30;66.50
8313;DHT22;4194;43.408;24.626;2023-04-28T17:14:03;14.70;68.10
8313;DHT22;4194;43.408;24.626;2023-04-28T17:16:35;14.50;67.60
8313;DHT22;4194;43.408;24.626;2023-04-28T17:19:01;14.00;68.00